Time;durP1;ratioP1;P1;durP2;ratioP2;P2;SDS_P1;SDS_P2;PMS_P1;PMS_P2;Temp;Humidity;BMP_temperature;BMP_pressure;BME280_temperature;BME280_humidity;BME280_pressure;Samples;Min_cycle;Max_cycle;Signal;HPM_P1;HPM_P2
2022/07/09 00:08:51;;;;;;;2.10;1.42;;;;;;;18.93;96.27;102473.34;20893083;28;20452;-74
2022/07/09 00:18:53;;;;;;;1.45;1.20;;;;;;;18.93;96.15;102462.53;20891159;28;20401;-74
2022/07/09 00:28:54;;;;;;;1.83;1.52;;;;;;;18.93;95.97;102467.09;20890026;28;20494;-75
2022/07/09 00:38:56;;;;;;;1.17;1.05;;;;;;;18.74;96.01;102430.56;20880308;28;20103;-75
2022/07/09 00:49:03;;;;;;;1.75;1.30;;;;;;;18.92;95.81;102459.97;20971539;28;20072;-75
2022/07/09 00:59:10;;;;;;;1.30;1.20;;;;;;;18.90;96.08;102443.84;20888467;28;20049;-75
2022/07/09 01:09:13;;;;;;;1.20;0.90;;;;;;;18.85;95.99;102421.72;20886688;28;20041;-74
2022/07/09 01:19:14;;;;;;;1.40;1.08;;;;;;;18.90;95.88;102424.97;20967842;28;20093;-75
2022/07/09 01:29:16;;;;;;;1.30;1.20;;;;;;;18.90;96.05;102424.13;20968355;28;20040;-75
2022/07/09 01:39:17;;;;;;;1.30;1.10;;;;;;;18.41;95.78;102346.44;20952383;28;20048;-74
2022/07/09 01:49:19;;;;;;;1.48;1.20;;;;;;;18.87;96.01;102413.53;20967316;28;20101;-75
2022/07/09 01:59:21;;;;;;;2.17;1.38;;;;;;;18.82;96.05;102389.56;20964863;28;20078;-75
2022/07/09 02:09:22;;;;;;;1.67;1.35;;;;;;;18.88;95.79;102394.53;20945977;28;20044;-75
2022/07/09 02:19:24;;;;;;;1.15;1.00;;;;;;;18.34;95.83;102298.44;20963034;28;20066;-75
2022/07/09 02:29:25;;;;;;;1.25;1.10;;;;;;;18.81;95.93;102356.34;20964979;28;20086;-74
2022/07/09 02:39:27;;;;;;;1.25;1.13;;;;;;;18.86;95.71;102366.78;20935747;28;20048;-75
2022/07/09 02:49:29;;;;;;;1.65;1.20;;;;;;;18.86;95.79;102364.09;20862002;28;20109;-74
2022/07/09 02:59:30;;;;;;;1.20;1.10;;;;;;;18.87;95.71;102370.38;20852583;28;20057;-75
2022/07/09 03:09:32;;;;;;;1.20;1.10;;;;;;;18.87;95.77;102364.97;20869765;28;20053;-75
2022/07/09 03:19:33;;;;;;;1.77;1.40;;;;;;;18.85;95.71;102362.38;20890534;28;20069;-75
2022/07/09 03:29:35;;;;;;;1.98;1.30;;;;;;;18.85;95.91;102354.28;20895787;28;20448;-75
2022/07/09 03:39:37;;;;;;;1.30;1.20;;;;;;;18.58;95.86;102308.50;20905665;28;20049;-75
2022/07/09 03:49:38;;;;;;;1.20;1.10;;;;;;;18.85;95.61;102335.38;20858466;28;20054;-75
2022/07/09 03:59:40;;;;;;;1.33;1.10;;;;;;;18.75;95.70;102328.91;20825630;28;20045;-75
2022/07/09 04:09:42;;;;;;;1.33;1.23;;;;;;;18.84;95.72;102337.22;20868514;28;20505;-75
2022/07/09 04:19:43;;;;;;;1.88;1.20;;;;;;;18.84;96.07;102323.75;20813901;28;20054;-75
2022/07/09 04:29:45;;;;;;;1.83;1.27;;;;;;;18.84;96.03;102333.66;20803419;28;20052;-78
2022/07/09 04:39:46;;;;;;;1.52;1.15;;;;;;;18.84;96.13;102337.22;20853092;28;20094;-74
2022/07/09 04:49:48;;;;;;;1.17;1.08;;;;;;;18.51;95.86;102316.16;20885614;28;20048;-75
2022/07/09 04:59:50;;;;;;;1.50;1.08;;;;;;;18.74;95.93;102321.78;20898124;28;20044;-75
2022/07/09 05:09:51;;;;;;;1.33;1.02;;;;;;;18.84;96.10;102339.06;20925824;28;20505;-75
2022/07/09 05:19:53;;;;;;;1.95;1.05;;;;;;;18.78;96.25;102323.31;20908847;28;20060;-75
2022/07/09 05:29:54;;;;;;;1.33;1.10;;;;;;;18.84;96.14;102334.53;20946649;28;20095;-75
2022/07/09 05:39:57;;;;;;;1.30;1.20;;;;;;;18.84;96.46;102328.25;20958655;28;20044;-75
2022/07/09 05:49:59;;;;;;;2.13;1.30;;;;;;;18.85;96.30;102329.97;20964296;28;20062;-75
2022/07/09 06:00:02;;;;;;;1.70;1.23;;;;;;;18.85;96.35;102324.59;20963974;28;20135;-75
2022/07/09 06:10:05;;;;;;;1.37;1.03;;;;;;;18.86;96.42;102318.22;20881328;28;20033;-75
2022/07/09 06:20:07;;;;;;;1.38;1.27;;;;;;;18.51;96.33;102268.47;20849088;28;20163;-76
2022/07/09 06:30:09;;;;;;;1.67;1.30;;;;;;;18.88;96.38;102318.13;20845952;28;20048;-75
2022/07/09 06:40:10;;;;;;;1.58;1.33;;;;;;;18.87;96.62;102313.69;20778969;28;20044;-76
2022/07/09 06:50:12;;;;;;;1.85;1.50;;;;;;;18.88;96.70;102329.78;20768673;28;20072;-76
2022/07/09 07:00:14;;;;;;;1.70;1.30;;;;;;;18.89;96.98;102322.56;20786569;28;20407;-76
2022/07/09 07:10:15;;;;;;;2.33;1.30;;;;;;;18.89;96.98;102325.25;20770314;28;20179;-77
2022/07/09 07:20:19;;;;;;;1.70;1.05;;;;;;;18.88;96.98;102318.97;20782114;28;20041;-76
2022/07/09 07:30:20;;;;;;;1.67;1.08;;;;;;;18.74;97.11;102302.91;20847160;28;20049;-76
2022/07/09 07:40:22;;;;;;;1.65;1.05;;;;;;;18.89;97.10;102320.69;20885011;28;20144;-75
2022/07/09 07:50:24;;;;;;;1.77;1.10;;;;;;;18.86;97.20;102320.06;20876425;28;20493;-76
2022/07/09 08:00:25;;;;;;;2.58;1.20;;;;;;;18.90;97.33;102324.28;20876101;28;20049;-76
2022/07/09 08:10:27;;;;;;;1.75;1.33;;;;;;;18.90;97.40;102318.88;20881077;28;21841;-76
2022/07/09 08:20:37;;;;;;;1.65;1.17;;;;;;;18.92;97.20;102309.69;20881605;28;20064;-75
2022/07/09 08:30:38;;;;;;;1.90;1.20;;;;;;;18.99;97.03;102307.47;20883034;28;20048;-76
2022/07/09 08:40:40;;;;;;;1.92;1.13;;;;;;;19.02;97.10;102298.28;20866025;28;20037;-76
2022/07/09 08:50:41;;;;;;;1.17;1.02;;;;;;;19.04;97.10;102315.25;20896161;28;20060;-76
2022/07/09 09:00:43;;;;;;;1.52;1.08;;;;;;;19.04;97.11;102293.66;20873684;28;20049;-75
2022/07/09 09:10:46;;;;;;;1.77;1.15;;;;;;;18.88;96.92;102256.06;20830654;28;20053;-76
2022/07/09 09:20:47;;;;;;;1.20;1.10;;;;;;;18.94;96.94;102286.16;20799945;28;20049;-76
2022/07/09 09:30:49;;;;;;;2.38;1.17;;;;;;;19.03;97.25;102281.13;20799013;28;20045;-76
2022/07/09 09:40:50;;;;;;;1.15;1.00;;;;;;;19.01;97.24;102294.72;20775469;28;20053;-76
2022/07/09 09:50:55;;;;;;;1.27;1.13;;;;;;;19.01;96.83;102283.91;20797847;28;20115;-76
2022/07/09 10:00:56;;;;;;;1.00;0.80;;;;;;;19.02;96.84;102307.25;20790653;28;20123;-76
2022/07/09 10:10:58;;;;;;;2.08;1.15;;;;;;;19.01;96.74;102310.06;20795198;28;20497;-76
2022/07/09 10:20:59;;;;;;;1.02;0.95;;;;;;;18.81;96.31;102261.91;20868821;28;20041;-76
2022/07/09 10:31:07;;;;;;;1.00;0.90;;;;;;;19.03;96.14;102300.03;20878671;28;20055;-77
2022/07/09 10:41:09;;;;;;;1.45;0.93;;;;;;;19.02;96.10;102292.91;20874784;28;20049;-76
2022/07/09 10:51:22;;;;;;;1.70;1.00;;;;;;;19.03;95.90;102294.63;20875768;28;20052;-76
2022/07/09 11:01:27;;;;;;;3.42;1.13;;;;;;;19.03;95.84;102300.03;20859145;28;20132;-75
2022/07/09 11:11:29;;;;;;;1.38;1.20;;;;;;;18.79;95.57;102265.66;20849452;28;20055;-75
2022/07/09 11:21:32;;;;;;;1.88;1.00;;;;;;;19.02;95.24;102292.91;20843096;28;20048;-77
2022/07/09 11:31:34;;;;;;;1.42;0.95;;;;;;;19.02;95.24;102318.03;20846069;28;20076;-75
2022/07/09 11:41:55;;;;;;;2.90;1.10;;;;;;;19.05;95.52;102335.88;20861442;28;20072;-76
2022/07/09 11:51:56;;;;;;;1.17;0.90;;;;;;;18.94;95.72;102323.94;20847238;28;20049;-75
2022/07/09 12:01:59;;;;;;;1.52;0.98;;;;;;;18.99;95.92;102342.53;20839347;28;20056;-76
2022/07/09 12:12:00;;;;;;;2.80;1.20;;;;;;;18.84;97.26;102307.56;20845332;28;20116;-76
2022/07/09 12:22:02;;;;;;;1.50;1.02;;;;;;;19.07;96.53;102340.16;20848387;28;20048;-76
2022/07/09 12:32:04;;;;;;;1.85;0.90;;;;;;;19.03;96.74;102329.72;20784381;28;20108;-76
2022/07/09 12:42:06;;;;;;;2.78;1.20;;;;;;;19.06;96.78;102340.28;20926530;28;20052;-76
2022/07/09 12:52:07;;;;;;;1.42;0.90;;;;;;;18.99;96.66;102346.09;20970904;28;20047;-76
2022/07/09 13:02:10;;;;;;;2.72;1.13;;;;;;;18.99;96.43;102332.59;20970063;28;20041;-76
2022/07/09 13:12:11;;;;;;;1.67;1.00;;;;;;;19.07;95.98;102344.72;20971535;28;20063;-76
2022/07/09 13:22:13;;;;;;;1.65;1.00;;;;;;;19.08;95.43;102346.44;20956391;28;20041;-76
2022/07/09 13:32:15;;;;;;;1.95;0.77;;;;;;;19.08;94.95;102346.44;20951247;28;20051;-76
2022/07/09 13:42:23;;;;;;;1.88;1.00;;;;;;;18.94;94.54;102326.63;20967517;28;20126;-76
2022/07/09 13:52:24;;;;;;;1.95;0.77;;;;;;;19.09;94.01;102348.16;20967541;28;20052;-76
2022/07/09 14:02:26;;;;;;;2.03;1.00;;;;;;;19.07;93.54;102347.41;20965004;28;20650;-76
2022/07/09 14:12:28;;;;;;;1.73;0.85;;;;;;;19.02;93.21;102336.09;20964853;28;20037;-76
2022/07/09 14:22:30;;;;;;;2.28;0.90;;;;;;;19.08;92.76;102346.44;20956444;28;20044;-76
2022/07/09 14:32:32;;;;;;;2.75;1.15;;;;;;;18.98;92.40;102338.13;20962734;28;20534;-76
2022/07/09 14:42:33;;;;;;;1.30;1.00;;;;;;;19.08;92.18;102373.44;20964218;28;20065;-76
2022/07/09 14:52:35;;;;;;;1.38;0.70;;;;;;;19.08;91.96;102363.47;20945502;28;20497;-76
2022/07/09 15:02:37;;;;;;;1.23;0.80;;;;;;;19.06;91.69;102361.88;20962219;28;20055;-76
2022/07/09 15:12:39;;;;;;;0.77;0.70;;;;;;;19.07;91.24;102371.69;20968801;28;20508;-77
2022/07/09 15:22:41;;;;;;;2.25;0.80;;;;;;;19.06;91.14;102375.38;20964495;28;20439;-76
2022/07/09 15:32:42;;;;;;;1.35;0.68;;;;;;;19.06;91.04;102380.78;20977346;28;20541;-76
2022/07/09 15:42:45;;;;;;;1.58;0.70;;;;;;;19.04;90.52;102383.56;20977936;28;20532;-76
2022/07/09 15:52:47;;;;;;;1.30;0.70;;;;;;;19.05;90.41;102385.28;20958627;28;20060;-76
2022/07/09 16:02:48;;;;;;;0.98;0.60;;;;;;;19.04;90.12;102377.31;20975009;28;20045;-76
2022/07/09 16:12:50;;;;;;;1.55;0.80;;;;;;;19.03;89.93;102371.03;20975047;28;20044;-76
2022/07/09 16:22:52;;;;;;;1.75;0.95;;;;;;;19.03;89.53;102367.50;20957385;28;20060;-76
2022/07/09 16:32:53;;;;;;;1.13;0.60;;;;;;;19.03;89.18;102359.41;20973131;28;20060;-76
2022/07/09 16:42:55;;;;;;;1.25;0.60;;;;;;;19.03;88.65;102373.75;20971105;28;20467;-76
2022/07/09 16:52:56;;;;;;;1.27;0.60;;;;;;;19.03;88.38;102362.09;20972227;28;20046;-76
2022/07/09 17:02:58;;;;;;;2.35;0.80;;;;;;;18.78;88.07;102336.78;20971657;28;20048;-77
2022/07/09 17:12:59;;;;;;;2.42;1.05;;;;;;;19.01;87.53;102378.38;20968818;28;20045;-76
2022/07/09 17:23:01;;;;;;;0.98;0.60;;;;;;;18.98;87.33;102363.25;20961239;28;20051;-77
2022/07/09 17:33:03;;;;;;;2.40;0.60;;;;;;;19.02;87.28;102379.25;20967704;28;20494;-76
2022/07/09 17:43:04;;;;;;;3.25;1.00;;;;;;;19.02;86.81;102373.88;20965368;28;20071;-76
2022/07/09 17:53:06;;;;;;;1.75;0.60;;;;;;;19.01;86.56;102366.75;20965933;28;20558;-76
2022/07/09 18:03:08;;;;;;;1.02;0.47;;;;;;;18.91;85.88;102351.13;20965514;28;20040;-76
2022/07/09 18:13:09;;;;;;;1.50;0.82;;;;;;;18.95;85.54;102368.00;20958309;28;20057;-76
2022/07/09 18:23:11;;;;;;;1.95;0.75;;;;;;;18.96;85.10;102381.38;20958661;28;20561;-76
2022/07/09 18:33:13;;;;;;;1.48;0.77;;;;;;;18.85;84.69;102359.66;20963254;28;20055;-76
2022/07/09 18:43:15;;;;;;;1.17;0.80;;;;;;;18.95;84.41;102381.47;20962953;28;20040;-76
2022/07/09 18:53:19;;;;;;;1.50;0.60;;;;;;;18.94;84.29;102383.31;20962302;28;20052;-76
2022/07/09 19:03:26;;;;;;;1.35;0.70;;;;;;;18.93;84.20;102386.13;20963100;28;20052;-76
2022/07/09 19:13:27;;;;;;;0.68;0.50;;;;;;;18.93;84.17;102395.06;20864169;28;20052;-76
2022/07/09 19:23:29;;;;;;;2.25;0.75;;;;;;;18.92;83.98;102400.59;20958148;28;20481;-75
2022/07/09 19:43:51;;;;;;;1.52;0.55;;;;;;;18.88;84.32;102404.47;20875603;28;20135;-76
2022/07/09 19:53:53;;;;;;;1.63;0.70;;;;;;;18.90;84.24;102407.94;20878325;28;20346;-76
2022/07/09 20:03:55;;;;;;;2.08;0.50;;;;;;;18.75;84.02;102381.03;20889199;28;20065;-76
2022/07/09 20:13:58;;;;;;;1.85;0.68;;;;;;;18.87;83.96;102403.59;20893494;28;20099;-76
2022/07/09 20:24:00;;;;;;;2.50;0.70;;;;;;;18.87;83.91;102398.19;20892303;28;20490;-76
2022/07/09 20:34:01;;;;;;;1.63;0.55;;;;;;;18.64;83.68;102380.91;20891666;28;20040;-76
2022/07/09 20:44:03;;;;;;;0.80;0.45;;;;;;;18.86;83.53;102388.38;20890295;28;20079;-76
2022/07/09 20:54:05;;;;;;;0.80;0.40;;;;;;;18.86;83.53;102401.03;20886232;28;20075;-77
2022/07/09 21:04:06;;;;;;;1.88;0.60;;;;;;;18.85;83.39;102383.94;20888805;28;20056;-77
2022/07/09 21:14:08;;;;;;;2.50;0.60;;;;;;;18.83;83.37;102381.38;20887373;28;21991;-76
2022/07/09 21:24:09;;;;;;;1.60;0.60;;;;;;;18.83;82.98;102380.50;20884003;28;20127;-76
2022/07/09 21:34:11;;;;;;;2.60;0.60;;;;;;;18.82;82.95;102370.69;20886980;28;20047;-76
2022/07/09 21:44:12;;;;;;;1.85;0.68;;;;;;;18.82;82.71;102362.59;20885189;28;20111;-76
2022/07/09 21:54:16;;;;;;;1.70;0.70;;;;;;;18.24;82.42;102274.81;20884148;28;20425;-76
2022/07/09 22:04:17;;;;;;;1.55;0.60;;;;;;;18.44;82.54;102283.38;20884617;28;20066;-76
2022/07/09 22:14:19;;;;;;;0.90;0.60;;;;;;;18.66;82.39;102323.19;20883470;28;20037;-76
2022/07/09 22:24:20;;;;;;;2.17;0.55;;;;;;;18.80;82.50;102342.94;20880553;28;20057;-76
2022/07/09 22:34:22;;;;;;;0.68;0.40;;;;;;;18.64;82.62;102322.44;20882375;28;20099;-76
2022/07/09 22:44:24;;;;;;;1.65;0.50;;;;;;;18.78;82.33;102344.88;20881770;28;20060;-76
2022/07/09 22:54:25;;;;;;;1.55;0.50;;;;;;;18.72;82.28;102342.63;20880418;28;20049;-76
2022/07/09 23:04:27;;;;;;;0.93;0.40;;;;;;;18.72;81.87;102335.38;20880940;28;20051;-77
2022/07/09 23:14:28;;;;;;;2.05;0.65;;;;;;;18.77;82.01;102330.50;20895054;28;20052;-76
2022/07/09 23:24:31;;;;;;;1.75;0.43;;;;;;;18.76;81.79;102327.94;20880068;28;20699;-76
2022/07/09 23:34:32;;;;;;;1.55;0.60;;;;;;;18.76;81.85;102330.63;20884897;28;20048;-76
2022/07/09 23:44:34;;;;;;;1.15;0.50;;;;;;;18.76;81.61;102333.34;20895741;28;20053;-76
2022/07/09 23:54:38;;;;;;;1.00;0.55;;;;;;;18.69;81.83;102317.59;20892693;28;20107;-76
